createdAt,value
2023-01-19T00:02:50.964Z,84.68
2023-01-19T00:05:04.211Z,85.30
2023-01-19T00:07:16.844Z,84.77
2023-01-19T00:09:33.591Z,84.79
2023-01-19T00:11:45.551Z,84.80
2023-01-19T00:13:58.074Z,85.01
2023-01-19T00:16:10.108Z,85.00
2023-01-19T00:18:22.042Z,85.30
2023-01-19T00:20:35.648Z,84.78
2023-01-19T00:22:51.024Z,84.95
2023-01-19T00:25:03.758Z,84.81
2023-01-19T00:27:15.804Z,84.96
2023-01-19T00:29:31.001Z,85.02
2023-01-19T00:31:43.472Z,85.18
2023-01-19T00:33:55.756Z,84.75
2023-01-19T00:36:08.447Z,84.71
2023-01-19T00:38:20.132Z,84.97
2023-01-19T00:40:32.333Z,85.14
2023-01-19T00:42:44.763Z,85.08
2023-01-19T00:44:57.401Z,84.79
2023-01-19T00:47:09.954Z,84.94
2023-01-19T00:49:21.946Z,84.86
2023-01-19T00:51:33.741Z,84.83
2023-01-19T00:53:45.324Z,84.80
2023-01-19T00:55:57.213Z,84.61
2023-01-19T00:58:08.923Z,84.64
2023-01-19T01:00:22.249Z,84.79
2023-01-19T01:02:34.398Z,84.78
2023-01-19T01:04:46.430Z,84.78
2023-01-19T01:06:58.419Z,84.80
2023-01-19T01:09:13.161Z,84.42
2023-01-19T01:11:25.375Z,84.69
2023-01-19T01:13:37.064Z,84.66
2023-01-19T01:15:51.311Z,84.88
2023-01-19T01:18:03.104Z,84.92
2023-01-19T01:20:18.022Z,84.78
2023-01-19T01:22:29.853Z,84.77
2023-01-19T01:24:41.440Z,84.49
2023-01-19T01:26:53.132Z,84.65
2023-01-19T01:29:06.657Z,84.42
2023-01-19T01:31:18.870Z,84.68
2023-01-19T01:33:39.996Z,84.41
2023-01-19T01:35:54.011Z,84.07
2023-01-19T01:38:06.004Z,84.49
2023-01-19T01:40:19.327Z,84.71
2023-01-19T01:42:32.458Z,84.49
2023-01-19T01:44:52.078Z,84.15
2023-01-19T01:47:04.938Z,84.52
2023-01-19T01:49:17.956Z,84.21
2023-01-19T01:51:39.168Z,84.00
2023-01-19T01:54:01.403Z,84.17
2023-01-19T01:56:17.823Z,84.37
2023-01-19T01:58:31.866Z,84.44
2023-01-19T02:01:03.062Z,85.00
2023-01-19T02:03:15.944Z,84.12
2023-01-19T02:05:33.733Z,84.51
2023-01-19T02:08:26.386Z,84.47
2023-01-19T02:10:58.862Z,84.62
2023-01-19T02:13:23.261Z,84.45
2023-01-19T02:15:35.339Z,85.04
2023-01-19T02:17:48.150Z,85.06
2023-01-19T02:20:00.048Z,84.60
2023-01-19T02:22:24.840Z,84.83
2023-01-19T02:24:37.968Z,84.84
2023-01-19T02:26:51.001Z,84.98
2023-01-19T02:29:07.591Z,84.76
2023-01-19T02:31:19.988Z,84.77
2023-01-19T02:33:32.187Z,84.95
2023-01-19T02:35:46.026Z,85.15
2023-01-19T02:37:58.856Z,84.77
2023-01-19T02:40:14.102Z,84.84
2023-01-19T02:42:31.122Z,84.74
2023-01-19T02:44:47.428Z,84.61
2023-01-19T02:46:59.618Z,84.63
2023-01-19T02:49:11.829Z,84.91
2023-01-19T02:51:24.939Z,85.36
2023-01-19T02:54:04.995Z,85.01
2023-01-19T02:56:36.340Z,85.00
2023-01-19T02:59:01.543Z,84.95
2023-01-19T03:01:26.857Z,85.09
2023-01-19T03:04:00.040Z,85.05
2023-01-19T03:06:28.119Z,85.23
2023-01-19T03:09:15.746Z,84.76
2023-01-19T03:11:35.301Z,84.90
2023-01-19T03:14:00.979Z,84.73
2023-01-19T03:16:22.833Z,84.93
2023-01-19T03:18:37.310Z,84.95
2023-01-19T03:20:53.545Z,85.30
2023-01-19T03:23:08.879Z,85.08
2023-01-19T03:25:23.247Z,85.68
2023-01-19T03:27:41.014Z,85.17
2023-01-19T03:30:19.882Z,85.13
2023-01-19T03:32:37.427Z,85.29
2023-01-19T03:34:51.664Z,84.96
2023-01-19T03:37:05.491Z,85.24
2023-01-19T03:39:23.224Z,85.38
2023-01-19T03:41:38.461Z,85.06
2023-01-19T03:43:52.638Z,85.37
2023-01-19T03:46:06.115Z,85.78
2023-01-19T03:48:18.264Z,85.09
2023-01-19T03:50:31.082Z,85.48
2023-01-19T03:52:43.073Z,85.43
2023-01-19T03:54:54.968Z,85.55
2023-01-19T03:57:07.372Z,85.59
2023-01-19T03:59:20.187Z,85.18
2023-01-19T04:01:33.210Z,85.24
2023-01-19T04:03:47.456Z,85.33
2023-01-19T04:05:59.546Z,85.08
2023-01-19T04:08:12.159Z,85.34
2023-01-19T04:10:24.463Z,85.45
2023-01-19T04:12:36.455Z,85.37
2023-01-19T04:14:48.038Z,85.46
2023-01-19T04:17:00.343Z,84.95
2023-01-19T04:19:12.540Z,85.16
2023-01-19T04:21:24.638Z,85.13
2023-01-19T04:23:37.041Z,85.13
2023-01-19T04:25:49.342Z,85.10
2023-01-19T04:28:01.341Z,85.27
2023-01-19T04:30:13.561Z,84.87
2023-01-19T04:32:25.227Z,84.91
2023-01-19T04:34:36.767Z,85.32
2023-01-19T04:36:51.277Z,85.05
2023-01-19T04:39:03.057Z,85.21
2023-01-19T04:41:15.043Z,85.36
2023-01-19T04:43:26.838Z,85.34
2023-01-19T04:45:38.729Z,85.36
2023-01-19T04:47:50.825Z,85.26
2023-01-19T04:50:02.520Z,85.26
2023-01-19T04:52:14.406Z,85.04
2023-01-19T04:54:27.230Z,84.90
2023-01-19T04:56:40.954Z,85.41
2023-01-19T04:58:52.848Z,85.42
2023-01-19T05:01:09.245Z,85.62
2023-01-19T05:03:20.980Z,85.28
2023-01-19T05:05:33.461Z,85.34
2023-01-19T05:07:45.540Z,85.41
2023-01-19T05:09:57.338Z,85.47
2023-01-19T05:12:09.833Z,85.53
2023-01-19T05:14:21.827Z,85.28
2023-01-19T05:16:34.854Z,85.86
2023-01-19T05:18:47.153Z,85.45
2023-01-19T05:20:58.630Z,85.52
2023-01-19T05:23:10.322Z,85.40
2023-01-19T05:25:22.033Z,84.88
2023-01-19T05:27:33.899Z,85.15
2023-01-19T05:29:45.587Z,85.33
2023-01-19T05:31:58.322Z,85.09
2023-01-19T05:34:12.443Z,84.82
2023-01-19T05:36:24.540Z,85.15
2023-01-19T05:38:36.534Z,85.01
2023-01-19T05:40:48.937Z,85.25
2023-01-19T05:43:05.204Z,85.23
2023-01-19T05:45:17.535Z,85.14
2023-01-19T05:47:30.156Z,85.47
2023-01-19T05:49:42.141Z,85.22
2023-01-19T05:51:53.732Z,85.15
2023-01-19T05:54:06.752Z,85.22
2023-01-19T05:56:18.634Z,85.09
2023-01-19T05:58:31.567Z,85.15
2023-01-19T06:00:43.242Z,85.37
2023-01-19T06:02:55.514Z,85.10
2023-01-19T06:05:08.360Z,85.31
2023-01-19T06:07:20.041Z,85.53
2023-01-19T06:09:32.737Z,85.22
2023-01-19T06:11:46.087Z,85.25
2023-01-19T06:13:57.869Z,85.48
2023-01-19T06:16:11.033Z,85.44
2023-01-19T06:18:22.985Z,85.35
2023-01-19T06:20:35.902Z,85.16
2023-01-19T06:22:48.203Z,84.97
2023-01-19T06:25:00.549Z,85.26
2023-01-19T06:27:13.948Z,84.80
2023-01-19T06:29:26.730Z,85.13
2023-01-19T06:31:40.701Z,86.33
2023-01-19T06:33:52.547Z,85.59
2023-01-19T06:36:06.743Z,85.45
2023-01-19T06:38:20.374Z,84.93
2023-01-19T06:40:32.659Z,84.84
2023-01-19T06:42:44.454Z,84.65
2023-01-19T06:44:57.203Z,84.89
2023-01-19T06:47:15.606Z,84.85
2023-01-19T06:49:28.327Z,84.93
2023-01-19T06:51:40.221Z,85.03
2023-01-19T06:53:51.947Z,84.73
2023-01-19T06:56:06.457Z,84.65
2023-01-19T06:58:19.581Z,84.67
2023-01-19T07:00:31.874Z,84.91
2023-01-19T07:02:44.813Z,84.75
2023-01-19T07:04:56.984Z,84.64
2023-01-19T07:07:08.988Z,84.74
2023-01-19T07:09:21.499Z,84.73
2023-01-19T07:11:33.898Z,84.94
2023-01-19T07:13:51.531Z,84.94
2023-01-19T07:16:07.366Z,84.70
2023-01-19T07:18:20.539Z,85.04
2023-01-19T07:20:33.447Z,84.80
2023-01-19T07:22:46.873Z,85.02
2023-01-19T07:24:59.282Z,84.76
2023-01-19T07:27:13.412Z,85.18
2023-01-19T07:29:25.941Z,84.73
2023-01-19T07:31:38.241Z,84.88
2023-01-19T07:33:50.233Z,84.67
2023-01-19T07:36:02.326Z,84.73
2023-01-19T07:38:15.959Z,84.98
2023-01-19T07:40:28.434Z,85.06
2023-01-19T07:42:40.256Z,85.13
2023-01-19T07:44:53.591Z,84.96
2023-01-19T07:47:07.731Z,84.87
2023-01-19T07:49:20.848Z,85.24
2023-01-19T07:51:33.047Z,84.78
2023-01-19T07:53:46.246Z,85.38
2023-01-19T07:55:58.776Z,85.07
2023-01-19T07:58:10.466Z,85.12
2023-01-19T08:00:25.472Z,84.89
2023-01-19T08:02:38.140Z,85.03
2023-01-19T08:04:50.277Z,84.83
2023-01-19T08:07:04.081Z,84.92
2023-01-19T08:09:16.184Z,84.86
2023-01-19T08:11:28.064Z,84.93
2023-01-19T08:13:40.167Z,84.87
2023-01-19T08:15:54.006Z,84.65
2023-01-19T08:18:07.017Z,84.91
2023-01-19T08:20:19.086Z,84.85
2023-01-19T08:22:31.456Z,84.89
2023-01-19T08:24:43.198Z,84.54
2023-01-19T08:27:02.777Z,84.53
2023-01-19T08:29:16.858Z,84.42
2023-01-19T08:31:30.743Z,84.55
2023-01-19T08:33:44.345Z,84.60
2023-01-19T08:35:55.982Z,84.38
2023-01-19T08:38:09.415Z,84.42
2023-01-19T08:40:21.181Z,84.57
2023-01-19T08:42:33.513Z,84.38
2023-01-19T08:44:57.399Z,84.52
2023-01-19T08:47:09.889Z,84.37
2023-01-19T08:49:22.190Z,84.92
2023-01-19T08:51:34.894Z,84.79
2023-01-19T08:53:47.101Z,85.20
2023-01-19T08:56:02.512Z,84.78
2023-01-19T08:58:14.246Z,85.08
2023-01-19T09:00:27.234Z,84.96
2023-01-19T09:02:38.817Z,84.84
2023-01-19T09:04:50.792Z,84.85
2023-01-19T09:07:02.398Z,84.54
2023-01-19T09:09:14.376Z,84.45
2023-01-19T09:11:27.703Z,84.28
2023-01-19T09:13:41.431Z,84.30
2023-01-19T09:15:53.964Z,84.27
2023-01-19T09:18:08.019Z,84.08
2023-01-19T09:20:20.030Z,84.07
2023-01-19T09:22:32.977Z,84.19
2023-01-19T09:24:44.863Z,84.10
2023-01-19T09:26:57.063Z,84.24
2023-01-19T09:29:09.074Z,84.18
2023-01-19T09:31:21.678Z,84.12
2023-01-19T09:33:34.852Z,83.88
2023-01-19T09:35:48.526Z,83.63
2023-01-19T09:38:00.974Z,83.06
2023-01-19T09:40:14.191Z,83.40
2023-01-19T09:42:32.127Z,83.71
2023-01-19T09:44:47.636Z,83.52
2023-01-19T09:47:03.957Z,83.27
2023-01-19T09:49:31.585Z,83.02
2023-01-19T09:51:50.700Z,82.89
2023-01-19T09:54:22.644Z,82.81
2023-01-19T09:56:34.587Z,82.80
2023-01-19T09:58:49.096Z,82.55
2023-01-19T10:01:22.802Z,82.76
2023-01-19T10:03:41.448Z,82.77
2023-01-19T10:06:03.898Z,82.84
2023-01-19T10:08:28.398Z,82.20
2023-01-19T10:10:45.601Z,82.53
2023-01-19T10:13:22.671Z,82.67
2023-01-19T10:16:02.656Z,82.47
2023-01-19T10:18:40.217Z,82.21
2023-01-19T10:21:05.550Z,82.07
2023-01-19T10:23:33.394Z,82.49
2023-01-19T10:25:46.261Z,82.57
2023-01-19T10:28:00.352Z,82.50
2023-01-19T10:30:22.916Z,82.43
2023-01-19T10:32:37.207Z,82.41
2023-01-19T10:34:50.871Z,82.06
2023-01-19T10:37:30.522Z,82.06
2023-01-19T10:39:43.029Z,82.25
2023-01-19T10:41:54.710Z,82.54
2023-01-19T10:44:09.998Z,82.41
2023-01-19T10:46:24.739Z,82.07
2023-01-19T10:48:42.272Z,81.91
2023-01-19T10:51:05.523Z,81.98
2023-01-19T10:53:22.644Z,81.84
2023-01-19T10:55:39.902Z,82.11
2023-01-19T10:57:53.661Z,81.88
2023-01-19T11:00:27.328Z,82.03
2023-01-19T11:02:50.615Z,82.49
2023-01-19T11:05:23.839Z,82.32
2023-01-19T11:07:35.850Z,82.23
2023-01-19T11:09:48.712Z,82.32
2023-01-19T11:12:00.557Z,81.81
2023-01-19T11:14:15.311Z,81.73
2023-01-19T11:16:34.853Z,81.74
2023-01-19T11:18:52.584Z,82.08
2023-01-19T11:21:07.333Z,82.12
2023-01-19T11:23:26.116Z,82.05
2023-01-19T11:25:39.323Z,81.99
2023-01-19T11:28:00.908Z,81.82
2023-01-19T11:30:25.759Z,81.69
2023-01-19T11:32:38.136Z,81.73
2023-01-19T11:34:50.610Z,81.79
2023-01-19T11:37:14.485Z,82.24
2023-01-19T11:39:29.648Z,81.85
2023-01-19T11:41:41.862Z,81.69
2023-01-19T11:44:00.457Z,81.58
2023-01-19T11:46:13.875Z,81.18
2023-01-19T11:48:45.219Z,81.35
2023-01-19T11:50:59.873Z,80.86
2023-01-19T11:53:25.658Z,81.15
2023-01-19T11:55:46.865Z,81.84
2023-01-19T11:57:59.650Z,81.43
2023-01-19T12:00:25.446Z,80.97
2023-01-19T12:02:47.016Z,81.41
2023-01-19T12:05:05.113Z,80.83
2023-01-19T12:07:25.638Z,80.97
2023-01-19T12:09:48.348Z,80.93
2023-01-19T12:12:06.593Z,81.29
2023-01-19T12:14:27.344Z,81.33
2023-01-19T12:16:41.518Z,81.07
2023-01-19T12:19:00.156Z,80.68
2023-01-19T12:21:12.126Z,80.68
2023-01-19T12:24:02.196Z,80.66
2023-01-19T12:26:53.223Z,80.74
2023-01-19T12:29:12.793Z,80.96
2023-01-19T12:31:25.191Z,81.09
2023-01-19T12:33:40.484Z,80.59
2023-01-19T12:36:03.961Z,80.75
2023-01-19T12:38:42.350Z,80.06
2023-01-19T12:41:14.081Z,80.33
2023-01-19T12:43:26.545Z,80.45
2023-01-19T12:45:40.037Z,80.65
2023-01-19T12:47:53.688Z,80.16
2023-01-19T12:50:14.091Z,79.86
2023-01-19T12:52:36.095Z,80.14
2023-01-19T12:55:02.129Z,79.15
2023-01-19T12:57:25.223Z,79.04
2023-01-19T12:59:39.043Z,78.19
2023-01-19T13:02:44.574Z,78.63
2023-01-19T13:05:16.890Z,78.56
2023-01-19T13:07:28.929Z,78.19
2023-01-19T13:09:42.778Z,77.45
2023-01-19T13:12:13.895Z,77.91
2023-01-19T13:14:37.551Z,78.07
2023-01-19T13:16:59.810Z,78.79
2023-01-19T13:19:12.984Z,78.83
2023-01-19T13:21:45.252Z,78.71
2023-01-19T13:24:00.067Z,78.75
2023-01-19T13:26:15.668Z,78.46
2023-01-19T13:28:40.951Z,78.69
2023-01-19T13:31:00.142Z,78.15
2023-01-19T13:33:21.441Z,78.13
2023-01-19T13:35:34.138Z,77.78
2023-01-19T13:37:46.647Z,77.57
2023-01-19T13:39:59.028Z,77.62
2023-01-19T13:42:30.842Z,77.65
2023-01-19T13:44:51.609Z,77.34
2023-01-19T13:47:04.764Z,77.74
2023-01-19T13:49:39.330Z,77.13
2023-01-19T13:52:20.155Z,77.72
2023-01-19T13:54:32.544Z,77.99
2023-01-19T13:56:50.594Z,78.16
2023-01-19T13:59:11.942Z,78.25
2023-01-19T14:01:24.003Z,77.89
2023-01-19T14:03:36.670Z,78.04
2023-01-19T14:05:52.153Z,78.23
2023-01-19T14:08:13.766Z,78.35
2023-01-19T14:10:26.005Z,78.31
2023-01-19T14:12:48.161Z,78.07
2023-01-19T14:15:15.487Z,78.43
2023-01-19T14:17:28.488Z,78.68
2023-01-19T14:19:58.657Z,78.18
2023-01-19T14:22:11.884Z,78.47
2023-01-19T14:24:25.532Z,79.86
2023-01-19T14:26:42.714Z,79.00
2023-01-19T14:28:56.579Z,78.90
2023-01-19T14:31:28.750Z,78.67
2023-01-19T14:33:45.596Z,78.55
2023-01-19T14:36:38.681Z,78.47
2023-01-19T14:38:52.293Z,78.75
2023-01-19T14:41:04.090Z,78.30
2023-01-19T14:43:16.073Z,78.62
2023-01-19T14:45:36.754Z,79.06
2023-01-19T14:48:01.580Z,78.69
2023-01-19T14:50:18.137Z,79.09
2023-01-19T14:52:40.947Z,79.74
2023-01-19T14:54:57.970Z,78.92
2023-01-19T14:57:15.086Z,79.03
2023-01-19T14:59:28.544Z,79.17
2023-01-19T15:01:44.898Z,79.74
2023-01-19T15:03:59.603Z,79.21
2023-01-19T15:06:22.188Z,79.16
2023-01-19T15:08:50.486Z,80.35
2023-01-19T15:11:13.007Z,79.66
2023-01-19T15:13:27.663Z,79.97
2023-01-19T15:15:45.372Z,79.97
2023-01-19T15:18:13.166Z,80.30
2023-01-19T15:20:25.443Z,80.04
2023-01-19T15:22:37.335Z,80.24
2023-01-19T15:24:50.149Z,80.39
2023-01-19T15:27:02.858Z,80.23
2023-01-19T15:29:22.119Z,79.81
2023-01-19T15:31:33.843Z,80.18
2023-01-19T15:33:46.425Z,80.66
2023-01-19T15:35:58.314Z,80.84
2023-01-19T15:38:10.468Z,80.04
2023-01-19T15:40:23.516Z,81.20
2023-01-19T15:42:35.939Z,80.72
2023-01-19T15:44:48.040Z,81.30
2023-01-19T15:46:59.975Z,80.85
2023-01-19T15:49:15.363Z,80.99
2023-01-19T15:51:28.282Z,81.19
2023-01-19T15:53:41.500Z,80.58
2023-01-19T15:55:56.942Z,80.96
2023-01-19T15:58:08.956Z,80.89
2023-01-19T16:00:21.277Z,80.87
2023-01-19T16:02:36.177Z,81.34
2023-01-19T16:04:49.610Z,81.05
2023-01-19T16:07:01.155Z,80.88
2023-01-19T16:09:20.319Z,81.35
2023-01-19T16:11:35.107Z,81.65
2023-01-19T16:13:47.686Z,81.84
2023-01-19T16:16:14.074Z,80.85
2023-01-19T16:18:27.071Z,80.88
2023-01-19T16:20:39.270Z,81.20
2023-01-19T16:22:52.874Z,80.88
2023-01-19T16:25:10.665Z,81.31
2023-01-19T16:27:24.171Z,81.05
2023-01-19T16:29:36.057Z,81.16
2023-01-19T16:31:47.893Z,81.24
2023-01-19T16:34:02.196Z,81.08
2023-01-19T16:36:23.325Z,81.46
2023-01-19T16:38:35.095Z,81.50
2023-01-19T16:40:48.628Z,81.58
2023-01-19T16:43:00.724Z,81.27
2023-01-19T16:45:16.203Z,81.45
2023-01-19T16:47:28.512Z,81.59
2023-01-19T16:49:40.905Z,81.62
2023-01-19T16:51:54.897Z,82.00
2023-01-19T16:54:07.261Z,81.75
2023-01-19T16:56:19.652Z,81.83
2023-01-19T16:58:31.758Z,81.78
2023-01-19T17:00:43.853Z,82.43
2023-01-19T17:02:56.189Z,82.42
2023-01-19T17:05:08.962Z,82.18
2023-01-19T17:07:21.046Z,82.65
2023-01-19T17:09:32.957Z,82.36
2023-01-19T17:11:47.929Z,82.16
2023-01-19T17:14:03.498Z,82.25
2023-01-19T17:16:15.953Z,82.63
2023-01-19T17:18:31.937Z,82.48
2023-01-19T17:20:43.986Z,82.26
2023-01-19T17:22:56.492Z,82.45
2023-01-19T17:25:08.905Z,82.44
2023-01-19T17:27:20.456Z,82.48
2023-01-19T17:29:32.167Z,82.31
2023-01-19T17:31:44.807Z,82.36
2023-01-19T17:33:57.620Z,82.10
2023-01-19T17:36:13.102Z,82.23
2023-01-19T17:38:24.960Z,82.61
2023-01-19T17:40:37.671Z,82.66
2023-01-19T17:42:49.563Z,82.73
2023-01-19T17:45:01.456Z,82.90
2023-01-19T17:47:13.460Z,82.97
2023-01-19T17:49:25.352Z,82.82
2023-01-19T17:51:37.542Z,83.08
2023-01-19T17:53:51.592Z,83.07
2023-01-19T17:56:05.431Z,82.88
2023-01-19T17:58:17.520Z,83.06
2023-01-19T18:00:30.129Z,82.75
2023-01-19T18:02:45.087Z,82.93
2023-01-19T18:05:00.878Z,82.65
2023-01-19T18:07:12.976Z,82.69
2023-01-19T18:09:24.872Z,82.82
2023-01-19T18:11:36.556Z,82.48
2023-01-19T18:13:50.744Z,82.38
2023-01-19T18:16:08.791Z,82.54
2023-01-19T18:18:20.525Z,82.27
2023-01-19T18:20:32.522Z,82.41
2023-01-19T18:22:44.627Z,82.48
2023-01-19T18:24:57.330Z,82.50
2023-01-19T18:27:09.433Z,82.15
2023-01-19T18:29:21.624Z,82.46
2023-01-19T18:31:33.900Z,82.45
2023-01-19T18:33:47.086Z,82.49
2023-01-19T18:36:00.272Z,82.47
2023-01-19T18:38:14.891Z,82.51
2023-01-19T18:40:29.381Z,82.49
2023-01-19T18:42:44.059Z,82.49
2023-01-19T18:44:57.983Z,82.43
2023-01-19T18:47:09.971Z,82.43
2023-01-19T18:49:21.572Z,82.39
2023-01-19T18:51:33.860Z,82.07
2023-01-19T18:53:45.817Z,82.33
2023-01-19T18:55:59.484Z,82.31
2023-01-19T18:58:11.446Z,82.16
2023-01-19T19:00:24.100Z,82.32
2023-01-19T19:02:37.417Z,81.98
2023-01-19T19:04:50.127Z,82.21
2023-01-19T19:07:02.447Z,82.30
2023-01-19T19:09:14.116Z,82.41
2023-01-19T19:11:27.091Z,82.40
2023-01-19T19:13:39.342Z,82.36
2023-01-19T19:15:52.740Z,82.39
2023-01-19T19:18:05.783Z,82.63
2023-01-19T19:20:18.002Z,82.58
2023-01-19T19:22:30.182Z,83.05
2023-01-19T19:24:41.571Z,82.88
2023-01-19T19:26:54.478Z,82.77
2023-01-19T19:29:06.370Z,83.23
2023-01-19T19:31:21.144Z,83.17
2023-01-19T19:33:33.842Z,83.14
2023-01-19T19:35:45.939Z,83.00
2023-01-19T19:37:58.031Z,83.05
2023-01-19T19:40:13.640Z,83.01
2023-01-19T19:42:29.090Z,82.96
2023-01-19T19:44:40.679Z,83.05
2023-01-19T19:46:53.728Z,82.87
2023-01-19T19:49:05.998Z,82.44
2023-01-19T19:51:25.553Z,82.66
2023-01-19T19:53:40.327Z,82.59
2023-01-19T19:56:01.022Z,82.76
2023-01-19T19:58:13.231Z,82.64
2023-01-19T20:00:27.927Z,82.43
2023-01-19T20:02:40.526Z,82.42
2023-01-19T20:04:53.117Z,82.23
2023-01-19T20:07:05.458Z,82.20
2023-01-19T20:09:18.114Z,82.40
2023-01-19T20:11:31.339Z,82.67
2023-01-19T20:13:44.424Z,82.66
2023-01-19T20:15:56.363Z,82.35
2023-01-19T20:18:08.551Z,82.55
2023-01-19T20:20:25.365Z,82.48
2023-01-19T20:22:41.980Z,82.40
2023-01-19T20:24:58.965Z,82.24
2023-01-19T20:27:15.219Z,82.16
2023-01-19T20:29:32.365Z,82.31
2023-01-19T20:31:52.112Z,82.34
2023-01-19T20:34:33.044Z,82.36
2023-01-19T20:36:49.908Z,82.27
2023-01-19T20:39:12.224Z,82.33
2023-01-19T20:41:29.584Z,82.57
2023-01-19T20:43:45.958Z,82.57
2023-01-19T20:46:00.689Z,82.08
2023-01-19T20:48:14.905Z,82.32
2023-01-19T20:50:31.956Z,81.97
2023-01-19T20:52:45.957Z,82.00
2023-01-19T20:55:00.178Z,82.01
2023-01-19T20:57:16.139Z,81.91
2023-01-19T20:59:32.871Z,81.82
2023-01-19T21:01:47.966Z,81.97
2023-01-19T21:04:04.128Z,82.06
2023-01-19T21:06:23.976Z,82.30
2023-01-19T21:08:41.059Z,81.89
2023-01-19T21:10:58.260Z,81.94
2023-01-19T21:13:15.400Z,81.82
2023-01-19T21:15:30.479Z,81.94
2023-01-19T21:17:47.329Z,82.04
2023-01-19T21:20:19.742Z,81.81
2023-01-19T21:23:11.496Z,81.90
2023-01-19T21:25:28.038Z,81.82
2023-01-19T21:27:45.182Z,82.04
2023-01-19T21:30:03.520Z,81.75
2023-01-19T21:32:18.033Z,81.63
2023-01-19T21:34:35.268Z,81.79
2023-01-19T21:36:50.226Z,81.78
2023-01-19T21:39:07.315Z,81.73
2023-01-19T21:41:24.691Z,82.19
2023-01-19T21:43:42.960Z,82.38
2023-01-19T21:46:11.211Z,82.32
2023-01-19T21:48:26.265Z,82.03
2023-01-19T21:50:43.516Z,81.96
2023-01-19T21:53:00.547Z,82.39
2023-01-19T21:55:14.647Z,82.28
2023-01-19T21:57:26.848Z,82.38
2023-01-19T21:59:41.023Z,82.31
2023-01-19T22:01:52.908Z,82.61
2023-01-19T22:04:06.416Z,82.67
2023-01-19T22:06:18.410Z,82.46
2023-01-19T22:08:30.416Z,83.13
2023-01-19T22:10:42.092Z,83.59
2023-01-19T22:12:53.742Z,83.71
2023-01-19T22:15:06.800Z,83.14
2023-01-19T22:17:18.694Z,83.15
2023-01-19T22:19:30.791Z,82.78
2023-01-19T22:21:42.580Z,82.63
2023-01-19T22:23:56.697Z,82.68
2023-01-19T22:26:10.747Z,82.68
2023-01-19T22:28:22.791Z,82.69
2023-01-19T22:30:35.101Z,82.44
2023-01-19T22:32:47.749Z,82.42
2023-01-19T22:35:00.089Z,82.70
2023-01-19T22:37:13.924Z,82.49
2023-01-19T22:39:26.113Z,82.58
2023-01-19T22:41:45.316Z,82.90
2023-01-19T22:44:05.462Z,82.77
2023-01-19T22:46:20.669Z,82.63
2023-01-19T22:48:32.625Z,82.67
2023-01-19T22:50:46.415Z,82.08
2023-01-19T22:52:59.181Z,82.21
2023-01-19T22:55:11.731Z,82.57
2023-01-19T22:57:25.008Z,82.13
2023-01-19T22:59:36.900Z,82.37
2023-01-19T23:01:49.687Z,82.51
2023-01-19T23:04:04.312Z,82.32
2023-01-19T23:06:22.005Z,82.32
2023-01-19T23:08:34.571Z,82.92
2023-01-19T23:10:46.805Z,82.51
2023-01-19T23:12:58.323Z,82.32
2023-01-19T23:15:10.736Z,82.33
2023-01-19T23:17:22.516Z,82.75
2023-01-19T23:19:34.477Z,82.50
2023-01-19T23:21:46.587Z,82.62
2023-01-19T23:24:01.363Z,82.71
2023-01-19T23:26:16.400Z,82.19
2023-01-19T23:28:28.293Z,82.41
2023-01-19T23:30:40.469Z,82.22
2023-01-19T23:32:52.487Z,82.57
2023-01-19T23:35:04.490Z,82.42
2023-01-19T23:37:16.583Z,82.04
2023-01-19T23:39:28.574Z,82.07
2023-01-19T23:41:40.263Z,82.60
2023-01-19T23:43:52.769Z,82.16
2023-01-19T23:46:05.964Z,82.12
2023-01-19T23:48:17.986Z,81.77
2023-01-19T23:50:30.195Z,82.05
2023-01-19T23:52:42.490Z,82.12
2023-01-19T23:54:54.075Z,82.26
2023-01-19T23:57:06.479Z,82.35
2023-01-19T23:59:18.267Z,82.57
